sensor_id;sensor_type;location;lat;lon;timestamp;temperature;humidity
71382;DHT22;60099;45.660;13.804;2022-08-19T00:00:14;24.00;69.60
71382;DHT22;60099;45.660;13.804;2022-08-19T00:02:41;24.00;69.10
71382;DHT22;60099;45.660;13.804;2022-08-19T00:05:07;24.00;67.80
71382;DHT22;60099;45.660;13.804;2022-08-19T00:07:33;24.00;67.00
71382;DHT22;60099;45.660;13.804;2022-08-19T00:09:59;24.10;66.80
71382;DHT22;60099;45.660;13.804;2022-08-19T00:12:25;24.20;66.90
71382;DHT22;60099;45.660;13.804;2022-08-19T00:14:51;24.20;66.60
71382;DHT22;60099;45.660;13.804;2022-08-19T00:17:19;24.20;66.30
71382;DHT22;60099;45.660;13.804;2022-08-19T00:19:45;24.20;66.10
71382;DHT22;60099;45.660;13.804;2022-08-19T00:22:11;24.10;66.10
71382;DHT22;60099;45.660;13.804;2022-08-19T00:24:37;24.20;64.80
71382;DHT22;60099;45.660;13.804;2022-08-19T00:27:04;24.20;64.80
71382;DHT22;60099;45.660;13.804;2022-08-19T00:29:30;24.30;63.90
71382;DHT22;60099;45.660;13.804;2022-08-19T00:31:57;24.30;63.00
71382;DHT22;60099;45.660;13.804;2022-08-19T00:34:24;24.30;62.80
71382;DHT22;60099;45.660;13.804;2022-08-19T00:36:51;24.40;62.70
71382;DHT22;60099;45.660;13.804;2022-08-19T00:39:17;24.40;62.40
71382;DHT22;60099;45.660;13.804;2022-08-19T00:41:44;24.40;62.10
71382;DHT22;60099;45.660;13.804;2022-08-19T00:44:16;24.40;61.70
71382;DHT22;60099;45.660;13.804;2022-08-19T00:46:46;24.50;60.80
71382;DHT22;60099;45.660;13.804;2022-08-19T00:49:31;24.50;60.60
71382;DHT22;60099;45.660;13.804;2022-08-19T00:52:04;24.50;59.90
71382;DHT22;60099;45.660;13.804;2022-08-19T00:54:31;24.50;59.90
71382;DHT22;60099;45.660;13.804;2022-08-19T00:56:59;24.50;59.70
71382;DHT22;60099;45.660;13.804;2022-08-19T00:59:27;24.50;59.60
71382;DHT22;60099;45.660;13.804;2022-08-19T01:01:53;24.50;59.60
71382;DHT22;60099;45.660;13.804;2022-08-19T01:04:19;24.50;60.30
71382;DHT22;60099;45.660;13.804;2022-08-19T01:06:45;24.50;61.50
71382;DHT22;60099;45.660;13.804;2022-08-19T01:09:11;24.40;60.00
71382;DHT22;60099;45.660;13.804;2022-08-19T01:11:40;24.40;60.00
71382;DHT22;60099;45.660;13.804;2022-08-19T01:14:08;24.50;60.70
71382;DHT22;60099;45.660;13.804;2022-08-19T01:16:35;24.50;61.80
71382;DHT22;60099;45.660;13.804;2022-08-19T01:19:06;24.50;67.90
71382;DHT22;60099;45.660;13.804;2022-08-19T01:21:42;24.50;70.30
71382;DHT22;60099;45.660;13.804;2022-08-19T01:24:09;24.50;71.70
71382;DHT22;60099;45.660;13.804;2022-08-19T01:26:40;24.40;73.00
71382;DHT22;60099;45.660;13.804;2022-08-19T01:29:08;24.20;74.80
71382;DHT22;60099;45.660;13.804;2022-08-19T01:31:34;23.90;77.80
71382;DHT22;60099;45.660;13.804;2022-08-19T01:34:01;23.80;79.50
71382;DHT22;60099;45.660;13.804;2022-08-19T01:36:42;23.60;82.50
71382;DHT22;60099;45.660;13.804;2022-08-19T01:39:15;23.50;83.50
71382;DHT22;60099;45.660;13.804;2022-08-19T01:41:41;23.20;85.40
71382;DHT22;60099;45.660;13.804;2022-08-19T01:44:08;23.30;85.60
71382;DHT22;60099;45.660;13.804;2022-08-19T01:46:35;23.30;85.60
71382;DHT22;60099;45.660;13.804;2022-08-19T01:49:02;22.80;86.60
71382;DHT22;60099;45.660;13.804;2022-08-19T01:51:29;22.70;88.40
71382;DHT22;60099;45.660;13.804;2022-08-19T01:53:56;22.80;86.70
71382;DHT22;60099;45.660;13.804;2022-08-19T01:56:23;22.80;85.20
71382;DHT22;60099;45.660;13.804;2022-08-19T01:59:00;22.80;82.50
71382;DHT22;60099;45.660;13.804;2022-08-19T02:01:26;22.80;84.00
71382;DHT22;60099;45.660;13.804;2022-08-19T02:03:52;22.60;84.90
71382;DHT22;60099;45.660;13.804;2022-08-19T02:06:18;22.60;84.90
71382;DHT22;60099;45.660;13.804;2022-08-19T02:08:44;22.60;84.60
71382;DHT22;60099;45.660;13.804;2022-08-19T02:11:20;22.70;84.30
71382;DHT22;60099;45.660;13.804;2022-08-19T02:13:46;22.80;84.10
71382;DHT22;60099;45.660;13.804;2022-08-19T02:16:12;22.80;83.80
71382;DHT22;60099;45.660;13.804;2022-08-19T02:18:38;22.80;84.40
71382;DHT22;60099;45.660;13.804;2022-08-19T02:21:04;22.80;84.70
71382;DHT22;60099;45.660;13.804;2022-08-19T02:23:31;22.80;84.70
71382;DHT22;60099;45.660;13.804;2022-08-19T02:25:57;22.80;85.70
71382;DHT22;60099;45.660;13.804;2022-08-19T02:28:22;22.90;85.40
71382;DHT22;60099;45.660;13.804;2022-08-19T02:30:48;22.90;83.00
71382;DHT22;60099;45.660;13.804;2022-08-19T02:33:14;22.90;81.70
71382;DHT22;60099;45.660;13.804;2022-08-19T02:35:44;22.90;81.30
71382;DHT22;60099;45.660;13.804;2022-08-19T02:38:10;22.60;81.20
71382;DHT22;60099;45.660;13.804;2022-08-19T02:40:55;22.50;82.30
71382;DHT22;60099;45.660;13.804;2022-08-19T02:43:22;22.50;82.80
71382;DHT22;60099;45.660;13.804;2022-08-19T02:45:49;22.50;82.70
71382;DHT22;60099;45.660;13.804;2022-08-19T02:48:20;22.30;84.00
71382;DHT22;60099;45.660;13.804;2022-08-19T02:50:47;22.30;83.00
71382;DHT22;60099;45.660;13.804;2022-08-19T02:53:13;22.30;83.20
71382;DHT22;60099;45.660;13.804;2022-08-19T02:55:46;22.40;82.40
71382;DHT22;60099;45.660;13.804;2022-08-19T02:58:13;22.20;82.30
71382;DHT22;60099;45.660;13.804;2022-08-19T03:00:48;22.30;82.80
71382;DHT22;60099;45.660;13.804;2022-08-19T03:03:16;22.30;83.00
71382;DHT22;60099;45.660;13.804;2022-08-19T03:05:42;22.40;83.10
71382;DHT22;60099;45.660;13.804;2022-08-19T03:08:09;22.40;82.40
71382;DHT22;60099;45.660;13.804;2022-08-19T03:10:47;22.40;81.90
71382;DHT22;60099;45.660;13.804;2022-08-19T03:13:14;22.40;81.50
71382;DHT22;60099;45.660;13.804;2022-08-19T03:15:42;22.20;81.90
71382;DHT22;60099;45.660;13.804;2022-08-19T03:18:09;22.30;80.50
71382;DHT22;60099;45.660;13.804;2022-08-19T03:20:43;22.20;80.40
71382;DHT22;60099;45.660;13.804;2022-08-19T03:23:10;21.90;81.10
71382;DHT22;60099;45.660;13.804;2022-08-19T03:25:44;21.90;83.00
71382;DHT22;60099;45.660;13.804;2022-08-19T03:28:11;22.00;83.40
71382;DHT22;60099;45.660;13.804;2022-08-19T03:30:37;22.00;81.40
71382;DHT22;60099;45.660;13.804;2022-08-19T03:33:05;22.00;82.20
71382;DHT22;60099;45.660;13.804;2022-08-19T03:35:31;22.00;82.30
71382;DHT22;60099;45.660;13.804;2022-08-19T03:37:59;22.00;82.10
71382;DHT22;60099;45.660;13.804;2022-08-19T03:40:25;22.10;81.40
71382;DHT22;60099;45.660;13.804;2022-08-19T03:42:51;22.00;81.30
71382;DHT22;60099;45.660;13.804;2022-08-19T03:45:17;22.10;82.10
71382;DHT22;60099;45.660;13.804;2022-08-19T03:47:42;22.10;81.70
71382;DHT22;60099;45.660;13.804;2022-08-19T03:50:08;22.10;80.50
71382;DHT22;60099;45.660;13.804;2022-08-19T03:52:34;22.10;80.50
71382;DHT22;60099;45.660;13.804;2022-08-19T03:55:02;22.20;79.40
71382;DHT22;60099;45.660;13.804;2022-08-19T03:57:27;22.20;79.40
71382;DHT22;60099;45.660;13.804;2022-08-19T03:59:53;22.30;80.80
71382;DHT22;60099;45.660;13.804;2022-08-19T04:02:19;22.30;81.50
71382;DHT22;60099;45.660;13.804;2022-08-19T04:04:45;22.30;81.30
71382;DHT22;60099;45.660;13.804;2022-08-19T04:07:12;22.20;81.50
71382;DHT22;60099;45.660;13.804;2022-08-19T04:09:41;22.20;81.70
71382;DHT22;60099;45.660;13.804;2022-08-19T04:12:07;22.30;81.90
71382;DHT22;60099;45.660;13.804;2022-08-19T04:14:34;22.20;81.70
71382;DHT22;60099;45.660;13.804;2022-08-19T04:17:01;22.00;80.20
71382;DHT22;60099;45.660;13.804;2022-08-19T04:19:30;21.70;80.80
71382;DHT22;60099;45.660;13.804;2022-08-19T04:21:56;21.80;83.40
71382;DHT22;60099;45.660;13.804;2022-08-19T04:24:22;21.70;84.90
71382;DHT22;60099;45.660;13.804;2022-08-19T04:26:48;21.70;84.40
71382;DHT22;60099;45.660;13.804;2022-08-19T04:29:18;21.80;82.90
71382;DHT22;60099;45.660;13.804;2022-08-19T04:31:44;21.90;82.80
71382;DHT22;60099;45.660;13.804;2022-08-19T04:34:12;21.90;82.60
71382;DHT22;60099;45.660;13.804;2022-08-19T04:36:40;22.00;82.10
71382;DHT22;60099;45.660;13.804;2022-08-19T04:39:13;22.00;80.90
71382;DHT22;60099;45.660;13.804;2022-08-19T04:41:39;22.00;80.50
71382;DHT22;60099;45.660;13.804;2022-08-19T04:44:24;21.80;80.30
71382;DHT22;60099;45.660;13.804;2022-08-19T04:46:51;21.80;78.30
71382;DHT22;60099;45.660;13.804;2022-08-19T04:49:20;21.70;77.80
71382;DHT22;60099;45.660;13.804;2022-08-19T04:51:48;21.80;77.60
71382;DHT22;60099;45.660;13.804;2022-08-19T04:54:16;21.50;76.20
71382;DHT22;60099;45.660;13.804;2022-08-19T04:56:42;21.40;76.70
71382;DHT22;60099;45.660;13.804;2022-08-19T04:59:08;21.30;77.60
71382;DHT22;60099;45.660;13.804;2022-08-19T05:01:34;21.20;77.00
71382;DHT22;60099;45.660;13.804;2022-08-19T05:04:03;21.00;78.30
71382;DHT22;60099;45.660;13.804;2022-08-19T05:06:31;20.90;79.10
71382;DHT22;60099;45.660;13.804;2022-08-19T05:09:02;20.90;78.70
71382;DHT22;60099;45.660;13.804;2022-08-19T05:11:34;20.80;79.00
71382;DHT22;60099;45.660;13.804;2022-08-19T05:14:01;20.80;78.60
71382;DHT22;60099;45.660;13.804;2022-08-19T05:16:27;20.80;76.60
71382;DHT22;60099;45.660;13.804;2022-08-19T05:18:53;21.00;77.10
71382;DHT22;60099;45.660;13.804;2022-08-19T05:21:40;21.00;76.00
71382;DHT22;60099;45.660;13.804;2022-08-19T05:24:25;21.00;77.40
71382;DHT22;60099;45.660;13.804;2022-08-19T05:26:52;20.90;75.80
71382;DHT22;60099;45.660;13.804;2022-08-19T05:29:20;20.90;75.60
71382;DHT22;60099;45.660;13.804;2022-08-19T05:31:47;20.80;76.70
71382;DHT22;60099;45.660;13.804;2022-08-19T05:34:15;20.80;76.70
71382;DHT22;60099;45.660;13.804;2022-08-19T05:36:43;20.80;76.90
71382;DHT22;60099;45.660;13.804;2022-08-19T05:39:13;20.70;76.30
71382;DHT22;60099;45.660;13.804;2022-08-19T05:41:45;20.80;76.60
71382;DHT22;60099;45.660;13.804;2022-08-19T05:44:12;20.90;76.60
71382;DHT22;60099;45.660;13.804;2022-08-19T05:46:38;21.00;76.20
71382;DHT22;60099;45.660;13.804;2022-08-19T05:49:08;21.00;76.00
71382;DHT22;60099;45.660;13.804;2022-08-19T05:51:35;21.10;76.60
71382;DHT22;60099;45.660;13.804;2022-08-19T05:54:03;21.10;75.70
71382;DHT22;60099;45.660;13.804;2022-08-19T05:56:29;21.20;75.30
71382;DHT22;60099;45.660;13.804;2022-08-19T05:58:56;21.30;75.20
71382;DHT22;60099;45.660;13.804;2022-08-19T06:01:22;21.40;75.40
71382;DHT22;60099;45.660;13.804;2022-08-19T06:03:48;21.40;74.50
71382;DHT22;60099;45.660;13.804;2022-08-19T06:06:16;21.40;73.80
71382;DHT22;60099;45.660;13.804;2022-08-19T06:08:42;21.40;74.60
71382;DHT22;60099;45.660;13.804;2022-08-19T06:13:47;21.40;74.70
71382;DHT22;60099;45.660;13.804;2022-08-19T06:16:17;21.30;75.00
71382;DHT22;60099;45.660;13.804;2022-08-19T06:18:51;21.30;75.30
71382;DHT22;60099;45.660;13.804;2022-08-19T06:21:18;21.30;75.90
71382;DHT22;60099;45.660;13.804;2022-08-19T06:23:45;21.30;75.30
71382;DHT22;60099;45.660;13.804;2022-08-19T06:26:14;21.30;75.80
71382;DHT22;60099;45.660;13.804;2022-08-19T06:28:40;21.40;75.10
71382;DHT22;60099;45.660;13.804;2022-08-19T06:31:16;21.50;75.30
71382;DHT22;60099;45.660;13.804;2022-08-19T06:33:43;21.60;73.90
71382;DHT22;60099;45.660;13.804;2022-08-19T06:36:26;21.60;74.00
71382;DHT22;60099;45.660;13.804;2022-08-19T06:39:08;21.70;73.70
71382;DHT22;60099;45.660;13.804;2022-08-19T06:41:40;21.70;73.20
71382;DHT22;60099;45.660;13.804;2022-08-19T06:44:07;21.80;71.70
71382;DHT22;60099;45.660;13.804;2022-08-19T06:46:33;21.90;69.70
71382;DHT22;60099;45.660;13.804;2022-08-19T06:48:59;22.00;71.60
71382;DHT22;60099;45.660;13.804;2022-08-19T06:51:26;22.10;71.70
71382;DHT22;60099;45.660;13.804;2022-08-19T06:53:53;22.10;71.20
71382;DHT22;60099;45.660;13.804;2022-08-19T06:56:23;22.20;70.60
71382;DHT22;60099;45.660;13.804;2022-08-19T06:58:50;22.20;69.80
71382;DHT22;60099;45.660;13.804;2022-08-19T07:01:19;22.30;69.80
71382;DHT22;60099;45.660;13.804;2022-08-19T07:03:46;22.40;69.00
71382;DHT22;60099;45.660;13.804;2022-08-19T07:06:14;22.50;68.10
71382;DHT22;60099;45.660;13.804;2022-08-19T07:08:44;22.50;68.20
71382;DHT22;60099;45.660;13.804;2022-08-19T07:11:11;22.70;67.90
71382;DHT22;60099;45.660;13.804;2022-08-19T07:13:39;22.70;66.60
71382;DHT22;60099;45.660;13.804;2022-08-19T07:16:06;22.70;67.10
71382;DHT22;60099;45.660;13.804;2022-08-19T07:18:33;22.80;66.60
71382;DHT22;60099;45.660;13.804;2022-08-19T07:21:20;22.80;66.90
71382;DHT22;60099;45.660;13.804;2022-08-19T07:23:48;22.80;67.00
71382;DHT22;60099;45.660;13.804;2022-08-19T07:26:29;22.90;67.00
71382;DHT22;60099;45.660;13.804;2022-08-19T07:28:56;22.90;66.20
71382;DHT22;60099;45.660;13.804;2022-08-19T07:31:24;22.90;66.90
71382;DHT22;60099;45.660;13.804;2022-08-19T07:33:52;23.00;65.20
71382;DHT22;60099;45.660;13.804;2022-08-19T07:36:25;23.10;64.40
71382;DHT22;60099;45.660;13.804;2022-08-19T07:38:59;23.20;64.70
71382;DHT22;60099;45.660;13.804;2022-08-19T07:41:26;23.30;63.70
71382;DHT22;60099;45.660;13.804;2022-08-19T07:43:54;23.40;63.50
71382;DHT22;60099;45.660;13.804;2022-08-19T07:46:20;23.50;64.20
71382;DHT22;60099;45.660;13.804;2022-08-19T07:48:47;23.60;63.70
71382;DHT22;60099;45.660;13.804;2022-08-19T07:51:17;23.70;63.30
71382;DHT22;60099;45.660;13.804;2022-08-19T07:53:43;23.70;62.60
71382;DHT22;60099;45.660;13.804;2022-08-19T07:56:11;23.70;62.60
71382;DHT22;60099;45.660;13.804;2022-08-19T07:58:40;23.90;63.20
71382;DHT22;60099;45.660;13.804;2022-08-19T08:01:08;24.00;62.50
71382;DHT22;60099;45.660;13.804;2022-08-19T08:03:37;23.90;61.80
71382;DHT22;60099;45.660;13.804;2022-08-19T08:06:22;24.00;62.10
71382;DHT22;60099;45.660;13.804;2022-08-19T08:09:07;24.00;62.20
71382;DHT22;60099;45.660;13.804;2022-08-19T08:11:37;24.10;60.10
71382;DHT22;60099;45.660;13.804;2022-08-19T08:14:03;24.10;60.20
71382;DHT22;60099;45.660;13.804;2022-08-19T08:16:35;24.20;60.00
71382;DHT22;60099;45.660;13.804;2022-08-19T08:19:01;24.20;59.40
71382;DHT22;60099;45.660;13.804;2022-08-19T08:21:26;24.30;59.00
71382;DHT22;60099;45.660;13.804;2022-08-19T08:23:52;24.40;59.30
71382;DHT22;60099;45.660;13.804;2022-08-19T08:26:20;24.50;59.20
71382;DHT22;60099;45.660;13.804;2022-08-19T08:28:47;24.50;59.00
71382;DHT22;60099;45.660;13.804;2022-08-19T08:31:13;24.60;59.90
71382;DHT22;60099;45.660;13.804;2022-08-19T08:33:40;24.80;60.40
71382;DHT22;60099;45.660;13.804;2022-08-19T08:36:11;24.90;58.90
71382;DHT22;60099;45.660;13.804;2022-08-19T08:38:40;25.20;58.70
71382;DHT22;60099;45.660;13.804;2022-08-19T08:41:25;25.30;57.20
71382;DHT22;60099;45.660;13.804;2022-08-19T08:43:54;25.40;57.60
71382;DHT22;60099;45.660;13.804;2022-08-19T08:46:37;25.50;57.30
71382;DHT22;60099;45.660;13.804;2022-08-19T08:51:48;25.60;57.80
71382;DHT22;60099;45.660;13.804;2022-08-19T08:54:20;25.70;57.50
71382;DHT22;60099;45.660;13.804;2022-08-19T08:56:52;25.80;58.20
71382;DHT22;60099;45.660;13.804;2022-08-19T08:59:29;25.90;57.60
71382;DHT22;60099;45.660;13.804;2022-08-19T09:01:58;25.90;57.80
71382;DHT22;60099;45.660;13.804;2022-08-19T09:04:24;25.90;57.60
71382;DHT22;60099;45.660;13.804;2022-08-19T09:09:50;26.10;55.60
71382;DHT22;60099;45.660;13.804;2022-08-19T09:15:11;25.90;56.50
71382;DHT22;60099;45.660;13.804;2022-08-19T09:17:37;26.00;55.80
71382;DHT22;60099;45.660;13.804;2022-08-19T09:22:37;26.20;56.30
71382;DHT22;60099;45.660;13.804;2022-08-19T09:25:05;26.40;52.90
71382;DHT22;60099;45.660;13.804;2022-08-19T09:27:31;26.60;53.50
71382;DHT22;60099;45.660;13.804;2022-08-19T09:29:57;26.70;51.60
71382;DHT22;60099;45.660;13.804;2022-08-19T09:32:25;26.90;51.50
71382;DHT22;60099;45.660;13.804;2022-08-19T09:34:52;27.00;51.60
71382;DHT22;60099;45.660;13.804;2022-08-19T09:37:24;27.20;50.80
71382;DHT22;60099;45.660;13.804;2022-08-19T09:39:50;27.30;51.50
71382;DHT22;60099;45.660;13.804;2022-08-19T09:42:16;27.40;50.80
71382;DHT22;60099;45.660;13.804;2022-08-19T09:44:42;27.40;51.20
71382;DHT22;60099;45.660;13.804;2022-08-19T09:47:10;27.40;51.30
71382;DHT22;60099;45.660;13.804;2022-08-19T09:49:37;27.50;51.20
71382;DHT22;60099;45.660;13.804;2022-08-19T09:52:05;27.60;51.10
71382;DHT22;60099;45.660;13.804;2022-08-19T09:54:33;27.70;51.10
71382;DHT22;60099;45.660;13.804;2022-08-19T09:56:59;27.80;51.10
71382;DHT22;60099;45.660;13.804;2022-08-19T09:59:28;28.00;51.70
71382;DHT22;60099;45.660;13.804;2022-08-19T10:01:54;28.10;51.70
71382;DHT22;60099;45.660;13.804;2022-08-19T10:04:20;28.20;51.10
71382;DHT22;60099;45.660;13.804;2022-08-19T10:07:08;28.40;51.20
71382;DHT22;60099;45.660;13.804;2022-08-19T10:09:34;28.40;51.20
71382;DHT22;60099;45.660;13.804;2022-08-19T10:12:01;28.30;51.40
71382;DHT22;60099;45.660;13.804;2022-08-19T10:14:27;28.20;51.50
71382;DHT22;60099;45.660;13.804;2022-08-19T10:16:53;28.10;51.80
71382;DHT22;60099;45.660;13.804;2022-08-19T10:19:19;28.00;52.10
71382;DHT22;60099;45.660;13.804;2022-08-19T10:21:48;27.90;52.90
71382;DHT22;60099;45.660;13.804;2022-08-19T10:24:14;27.80;52.50
71382;DHT22;60099;45.660;13.804;2022-08-19T10:26:40;27.70;53.60
71382;DHT22;60099;45.660;13.804;2022-08-19T10:29:13;27.60;54.30
71382;DHT22;60099;45.660;13.804;2022-08-19T10:31:41;27.50;54.90
71382;DHT22;60099;45.660;13.804;2022-08-19T10:34:07;27.50;55.10
71382;DHT22;60099;45.660;13.804;2022-08-19T10:36:36;27.30;57.40
71382;DHT22;60099;45.660;13.804;2022-08-19T10:39:11;27.10;59.10
71382;DHT22;60099;45.660;13.804;2022-08-19T10:41:39;26.90;62.60
71382;DHT22;60099;45.660;13.804;2022-08-19T10:44:11;26.70;65.80
71382;DHT22;60099;45.660;13.804;2022-08-19T10:46:40;26.30;69.60
71382;DHT22;60099;45.660;13.804;2022-08-19T10:49:08;26.00;73.10
71382;DHT22;60099;45.660;13.804;2022-08-19T10:51:34;25.70;75.40
71382;DHT22;60099;45.660;13.804;2022-08-19T10:54:19;25.60;73.70
71382;DHT22;60099;45.660;13.804;2022-08-19T10:56:45;25.40;73.40
71382;DHT22;60099;45.660;13.804;2022-08-19T10:59:27;25.20;75.20
71382;DHT22;60099;45.660;13.804;2022-08-19T11:01:59;25.10;74.20
71382;DHT22;60099;45.660;13.804;2022-08-19T11:04:25;25.10;78.50
71382;DHT22;60099;45.660;13.804;2022-08-19T11:06:51;24.80;69.00
71382;DHT22;60099;45.660;13.804;2022-08-19T11:09:22;24.70;72.10
71382;DHT22;60099;45.660;13.804;2022-08-19T11:11:55;24.70;73.20
71382;DHT22;60099;45.660;13.804;2022-08-19T11:14:22;24.80;76.80
71382;DHT22;60099;45.660;13.804;2022-08-19T11:16:49;24.80;68.70
71382;DHT22;60099;45.660;13.804;2022-08-19T11:19:15;24.90;62.90
71382;DHT22;60099;45.660;13.804;2022-08-19T11:21:47;25.20;68.20
71382;DHT22;60099;45.660;13.804;2022-08-19T11:24:24;25.50;74.80
71382;DHT22;60099;45.660;13.804;2022-08-19T11:26:52;25.60;73.10
71382;DHT22;60099;45.660;13.804;2022-08-19T11:29:20;25.80;74.10
71382;DHT22;60099;45.660;13.804;2022-08-19T11:31:47;25.90;67.80
71382;DHT22;60099;45.660;13.804;2022-08-19T11:34:18;25.90;65.80
71382;DHT22;60099;45.660;13.804;2022-08-19T11:36:45;25.90;66.80
71382;DHT22;60099;45.660;13.804;2022-08-19T11:39:15;25.80;70.50
71382;DHT22;60099;45.660;13.804;2022-08-19T11:41:41;25.90;71.30
71382;DHT22;60099;45.660;13.804;2022-08-19T11:44:07;26.00;74.10
71382;DHT22;60099;45.660;13.804;2022-08-19T11:46:33;26.30;72.40
71382;DHT22;60099;45.660;13.804;2022-08-19T11:49:00;26.50;67.40
71382;DHT22;60099;45.660;13.804;2022-08-19T11:51:28;26.60;67.40
71382;DHT22;60099;45.660;13.804;2022-08-19T11:53:54;26.70;67.50
71382;DHT22;60099;45.660;13.804;2022-08-19T11:56:22;26.70;69.50
71382;DHT22;60099;45.660;13.804;2022-08-19T11:58:48;26.50;68.90
71382;DHT22;60099;45.660;13.804;2022-08-19T12:01:17;26.50;66.60
71382;DHT22;60099;45.660;13.804;2022-08-19T12:03:44;26.50;65.80
71382;DHT22;60099;45.660;13.804;2022-08-19T12:06:16;26.60;64.70
71382;DHT22;60099;45.660;13.804;2022-08-19T12:08:45;26.60;65.10
71382;DHT22;60099;45.660;13.804;2022-08-19T12:11:13;26.60;60.10
71382;DHT22;60099;45.660;13.804;2022-08-19T12:13:40;26.60;62.10
71382;DHT22;60099;45.660;13.804;2022-08-19T12:16:11;26.60;62.20
71382;DHT22;60099;45.660;13.804;2022-08-19T12:18:42;26.70;65.50
71382;DHT22;60099;45.660;13.804;2022-08-19T12:21:12;26.70;66.40
71382;DHT22;60099;45.660;13.804;2022-08-19T12:23:40;26.80;63.80
71382;DHT22;60099;45.660;13.804;2022-08-19T12:26:06;26.90;59.20
71382;DHT22;60099;45.660;13.804;2022-08-19T12:28:32;26.70;60.40
71382;DHT22;60099;45.660;13.804;2022-08-19T12:30:58;26.80;63.00
71382;DHT22;60099;45.660;13.804;2022-08-19T12:33:24;26.90;62.70
71382;DHT22;60099;45.660;13.804;2022-08-19T12:35:53;27.00;65.10
71382;DHT22;60099;45.660;13.804;2022-08-19T12:38:19;27.00;60.10
71382;DHT22;60099;45.660;13.804;2022-08-19T12:40:48;27.10;60.30
71382;DHT22;60099;45.660;13.804;2022-08-19T12:43:14;27.10;62.10
71382;DHT22;60099;45.660;13.804;2022-08-19T12:45:41;27.20;60.60
71382;DHT22;60099;45.660;13.804;2022-08-19T12:48:08;27.20;59.60
71382;DHT22;60099;45.660;13.804;2022-08-19T12:50:34;27.20;58.50
71382;DHT22;60099;45.660;13.804;2022-08-19T12:53:00;27.30;60.50
71382;DHT22;60099;45.660;13.804;2022-08-19T12:55:26;27.30;58.40
71382;DHT22;60099;45.660;13.804;2022-08-19T12:57:53;27.30;59.80
71382;DHT22;60099;45.660;13.804;2022-08-19T13:00:21;27.40;60.20
71382;DHT22;60099;45.660;13.804;2022-08-19T13:02:49;27.40;58.70
71382;DHT22;60099;45.660;13.804;2022-08-19T13:05:21;27.50;58.30
71382;DHT22;60099;45.660;13.804;2022-08-19T13:07:49;27.60;57.00
71382;DHT22;60099;45.660;13.804;2022-08-19T13:10:17;27.60;56.60
71382;DHT22;60099;45.660;13.804;2022-08-19T13:12:44;27.60;56.80
71382;DHT22;60099;45.660;13.804;2022-08-19T13:15:11;27.60;57.60
71382;DHT22;60099;45.660;13.804;2022-08-19T13:17:38;27.60;57.50
71382;DHT22;60099;45.660;13.804;2022-08-19T13:20:05;27.70;56.90
71382;DHT22;60099;45.660;13.804;2022-08-19T13:22:33;27.70;55.60
71382;DHT22;60099;45.660;13.804;2022-08-19T13:24:59;27.70;56.80
71382;DHT22;60099;45.660;13.804;2022-08-19T13:27:24;27.70;57.40
71382;DHT22;60099;45.660;13.804;2022-08-19T13:29:50;27.80;57.20
71382;DHT22;60099;45.660;13.804;2022-08-19T13:32:34;27.90;58.10
71382;DHT22;60099;45.660;13.804;2022-08-19T13:35:18;27.90;56.20
71382;DHT22;60099;45.660;13.804;2022-08-19T13:37:44;27.90;55.40
71382;DHT22;60099;45.660;13.804;2022-08-19T13:40:19;27.90;55.00
71382;DHT22;60099;45.660;13.804;2022-08-19T13:42:50;28.00;55.50
71382;DHT22;60099;45.660;13.804;2022-08-19T13:45:19;28.10;55.90
71382;DHT22;60099;45.660;13.804;2022-08-19T13:47:50;28.10;54.00
71382;DHT22;60099;45.660;13.804;2022-08-19T13:50:26;28.20;55.00
71382;DHT22;60099;45.660;13.804;2022-08-19T13:52:54;28.30;53.30
71382;DHT22;60099;45.660;13.804;2022-08-19T13:55:21;28.30;53.30
71382;DHT22;60099;45.660;13.804;2022-08-19T13:57:50;28.20;53.40
71382;DHT22;60099;45.660;13.804;2022-08-19T14:00:17;28.20;52.70
71382;DHT22;60099;45.660;13.804;2022-08-19T14:02:44;28.30;54.20
71382;DHT22;60099;45.660;13.804;2022-08-19T14:05:12;28.40;53.40
71382;DHT22;60099;45.660;13.804;2022-08-19T14:07:38;28.30;52.50
71382;DHT22;60099;45.660;13.804;2022-08-19T14:10:06;28.30;53.40
71382;DHT22;60099;45.660;13.804;2022-08-19T14:12:33;28.40;54.80
71382;DHT22;60099;45.660;13.804;2022-08-19T14:15:00;28.40;55.10
71382;DHT22;60099;45.660;13.804;2022-08-19T14:17:26;28.50;57.30
71382;DHT22;60099;45.660;13.804;2022-08-19T14:20:01;28.50;56.70
71382;DHT22;60099;45.660;13.804;2022-08-19T14:22:37;28.40;57.30
71382;DHT22;60099;45.660;13.804;2022-08-19T14:25:05;28.40;58.10
71382;DHT22;60099;45.660;13.804;2022-08-19T14:27:34;28.30;58.50
71382;DHT22;60099;45.660;13.804;2022-08-19T14:30:00;28.20;59.20
71382;DHT22;60099;45.660;13.804;2022-08-19T14:32:25;28.20;59.10
71382;DHT22;60099;45.660;13.804;2022-08-19T14:34:52;28.10;59.50
71382;DHT22;60099;45.660;13.804;2022-08-19T14:37:18;28.10;60.40
71382;DHT22;60099;45.660;13.804;2022-08-19T14:39:44;28.20;61.00
71382;DHT22;60099;45.660;13.804;2022-08-19T14:42:11;28.10;61.10
71382;DHT22;60099;45.660;13.804;2022-08-19T14:44:41;28.10;60.80
71382;DHT22;60099;45.660;13.804;2022-08-19T14:47:07;28.00;61.00
71382;DHT22;60099;45.660;13.804;2022-08-19T14:49:34;27.90;61.60
71382;DHT22;60099;45.660;13.804;2022-08-19T14:52:00;27.80;61.20
71382;DHT22;60099;45.660;13.804;2022-08-19T14:54:26;27.80;61.80
71382;DHT22;60099;45.660;13.804;2022-08-19T14:56:52;27.70;62.30
71382;DHT22;60099;45.660;13.804;2022-08-19T14:59:18;27.60;62.00
71382;DHT22;60099;45.660;13.804;2022-08-19T15:01:44;27.60;63.00
71382;DHT22;60099;45.660;13.804;2022-08-19T15:04:10;27.60;62.80
71382;DHT22;60099;45.660;13.804;2022-08-19T15:06:36;27.60;63.60
71382;DHT22;60099;45.660;13.804;2022-08-19T15:09:03;27.60;63.40
71382;DHT22;60099;45.660;13.804;2022-08-19T15:11:29;27.60;61.70
71382;DHT22;60099;45.660;13.804;2022-08-19T15:13:58;27.50;61.80
71382;DHT22;60099;45.660;13.804;2022-08-19T15:16:25;27.50;62.20
71382;DHT22;60099;45.660;13.804;2022-08-19T15:18:55;27.50;63.20
71382;DHT22;60099;45.660;13.804;2022-08-19T15:21:22;27.50;64.30
71382;DHT22;60099;45.660;13.804;2022-08-19T15:23:49;27.50;65.90
71382;DHT22;60099;45.660;13.804;2022-08-19T15:26:16;27.50;66.40
71382;DHT22;60099;45.660;13.804;2022-08-19T15:28:42;27.50;66.10
71382;DHT22;60099;45.660;13.804;2022-08-19T15:31:09;27.40;65.70
71382;DHT22;60099;45.660;13.804;2022-08-19T15:33:36;27.40;66.80
71382;DHT22;60099;45.660;13.804;2022-08-19T15:36:03;27.30;66.20